Cayasta, Argentina
Current Conditions -  °F | °C
As of 2:00 PM on Friday 28 Nov 2014 (Local Time) from SAAR Reporting Station
Clear Clear  
Wind Chill: 86°   Ceiling: Unl
Heat Index: 86°   Visibility: 6mi
Dew Point: 59°   Wind: 12mph
Humidity: 40%   Direction: 70°ENE
Pressure: 29.88"   Gusts: NA
Location:  31.2°S, 60.17°W
Report Text: SAAR 281700Z 07010KT CAVOK 30/15 Q1012
Loading
Personal Weather Stations






























Interactive Weather Map New forecast layout! Learn more

10-Day Weather Forecast

Advertisements
Track Severe Weather on mobile